RYR44BM EBCI-EIDW
Flight info
| Callsign | RYR44BM |
|---|---|
| Flight time | 1h 9m |
| Altitude | 36000 |
| Route | CIV UY50 LUMEN L610 KOPUL Q63 ICTAM T421 DIDZA DCT CESQA DCT BIBPE DCT OKTAD DCT MEDOG DCT KRAGY DCT PEMOB M17 VATRY VATRY4L |
| Aircraft | B738/M-SDE2E3FGHIRWXY/LB1 |
Departure
| Time | 2026-05-05 17:40 |
|---|---|
| Airport | Brussels South Charleroi Airport (EBCI) |
Arrival
| Time | 2026-05-05 18:50 |
|---|---|
| Airport | Dublin Airport (EIDW) |
| Time | Latitude | Longitude | Altitude | Speed | Heading |
|---|---|---|---|---|---|
| 2026-05-05 17:40 | 50.43343 | 4.36046 | 3482 ft | 257 kts | 248° |
| 2026-05-05 17:40 | 50.42561 | 4.33371 | 4090 ft | 277 kts | 246° |
| 2026-05-05 17:40 | 50.41691 | 4.30697 | 5218 ft | 277 kts | 247° |
| 2026-05-05 17:41 | 50.41013 | 4.27820 | 6018 ft | 286 kts | 261° |
| 2026-05-05 17:41 | 50.41074 | 4.24765 | 7010 ft | 282 kts | 287° |
| 2026-05-05 17:41 | 50.41848 | 4.21971 | 7947 ft | 282 kts | 302° |
| 2026-05-05 17:41 | 50.42895 | 4.19341 | 8820 ft | 287 kts | 304° |
| 2026-05-05 17:42 | 50.43987 | 4.16690 | 9609 ft | 294 kts | 305° |
| 2026-05-05 17:42 | 50.45116 | 4.13961 | 10242 ft | 305 kts | 305° |
| 2026-05-05 17:42 | 50.46313 | 4.11042 | 10425 ft | 331 kts | 304° |
| 2026-05-05 17:42 | 50.47577 | 4.07919 | 10911 ft | 345 kts | 304° |
| 2026-05-05 17:43 | 50.48867 | 4.04706 | 11643 ft | 350 kts | 304° |
| 2026-05-05 17:43 | 50.50169 | 4.01448 | 12448 ft | 354 kts | 303° |
| 2026-05-05 17:43 | 50.51485 | 3.98154 | 13232 ft | 358 kts | 304° |
| 2026-05-05 17:43 | 50.53053 | 3.95103 | 13944 ft | 361 kts | 317° |
| 2026-05-05 17:44 | 50.54907 | 3.92417 | 14646 ft | 365 kts | 319° |
| 2026-05-05 17:44 | 50.56821 | 3.89746 | 15271 ft | 371 kts | 319° |
| 2026-05-05 17:44 | 50.58762 | 3.87048 | 16053 ft | 371 kts | 318° |
| 2026-05-05 17:44 | 50.60695 | 3.84342 | 16783 ft | 375 kts | 317° |
| 2026-05-05 17:45 | 50.62652 | 3.81579 | 17435 ft | 379 kts | 317° |
| 2026-05-05 17:45 | 50.64624 | 3.78775 | 18092 ft | 384 kts | 316° |
| 2026-05-05 17:45 | 50.66619 | 3.75920 | 18639 ft | 390 kts | 316° |
| 2026-05-05 17:45 | 50.68632 | 3.73029 | 19255 ft | 392 kts | 317° |
| 2026-05-05 17:46 | 50.70632 | 3.70146 | 19820 ft | 396 kts | 317° |
| 2026-05-05 17:46 | 50.72662 | 3.67219 | 20552 ft | 395 kts | 317° |
| 2026-05-05 17:46 | 50.74699 | 3.64275 | 21032 ft | 402 kts | 316° |
| 2026-05-05 17:46 | 50.76773 | 3.61274 | 21530 ft | 406 kts | 316° |
| 2026-05-05 17:47 | 50.78850 | 3.58264 | 22297 ft | 404 kts | 316° |
| 2026-05-05 17:47 | 50.80921 | 3.55259 | 22943 ft | 405 kts | 316° |
| 2026-05-05 17:47 | 50.83003 | 3.52237 | 23475 ft | 409 kts | 315° |
| 2026-05-05 17:47 | 50.85116 | 3.49159 | 23836 ft | 414 kts | 316° |
| 2026-05-05 17:48 | 50.87247 | 3.46055 | 24269 ft | 417 kts | 315° |
| 2026-05-05 17:48 | 50.89389 | 3.42932 | 24690 ft | 421 kts | 316° |
| 2026-05-05 17:48 | 50.91550 | 3.39776 | 25128 ft | 424 kts | 315° |
| 2026-05-05 17:48 | 50.93731 | 3.36588 | 25502 ft | 428 kts | 316° |
| 2026-05-05 17:49 | 50.95927 | 3.33373 | 25927 ft | 431 kts | 316° |
| 2026-05-05 17:49 | 50.98139 | 3.30131 | 26331 ft | 434 kts | 316° |
| 2026-05-05 17:49 | 51.00371 | 3.26854 | 26622 ft | 440 kts | 315° |
| 2026-05-05 17:49 | 51.02631 | 3.23530 | 26993 ft | 444 kts | 316° |
| 2026-05-05 17:50 | 51.04890 | 3.20205 | 27565 ft | 442 kts | 316° |
| 2026-05-05 17:50 | 51.07148 | 3.16877 | 27941 ft | 445 kts | 316° |
| 2026-05-05 17:50 | 51.09434 | 3.13503 | 28200 ft | 451 kts | 316° |
| 2026-05-05 17:50 | 51.11731 | 3.10106 | 28692 ft | 450 kts | 316° |
| 2026-05-05 17:51 | 51.14029 | 3.06704 | 29086 ft | 452 kts | 316° |
| 2026-05-05 17:51 | 51.16341 | 3.03274 | 29361 ft | 457 kts | 316° |
| 2026-05-05 17:51 | 51.18675 | 2.99808 | 29629 ft | 461 kts | 316° |
| 2026-05-05 17:51 | 51.20993 | 2.96359 | 30019 ft | 462 kts | 316° |
| 2026-05-05 17:52 | 51.23340 | 2.92861 | 30311 ft | 464 kts | 316° |
| 2026-05-05 17:52 | 51.25702 | 2.89335 | 30570 ft | 466 kts | 316° |
| 2026-05-05 17:52 | 51.28078 | 2.85784 | 30846 ft | 468 kts | 315° |
| 2026-05-05 17:52 | 51.30456 | 2.82228 | 31253 ft | 466 kts | 315° |
| 2026-05-05 17:53 | 51.32752 | 2.78617 | 31721 ft | 462 kts | 308° |
| 2026-05-05 17:53 | 51.34593 | 2.74430 | 31953 ft | 460 kts | 295° |
| 2026-05-05 17:53 | 51.35866 | 2.69765 | 32268 ft | 456 kts | 285° |
| 2026-05-05 17:53 | 51.36631 | 2.64881 | 32651 ft | 451 kts | 278° |
| 2026-05-05 17:54 | 51.37208 | 2.59950 | 33023 ft | 450 kts | 277° |
| 2026-05-05 17:54 | 51.37769 | 2.55025 | 33351 ft | 450 kts | 277° |
| 2026-05-05 17:54 | 51.38338 | 2.50101 | 33702 ft | 450 kts | 277° |
| 2026-05-05 17:54 | 51.38920 | 2.45183 | 34049 ft | 449 kts | 277° |
| 2026-05-05 17:55 | 51.39509 | 2.40283 | 34344 ft | 448 kts | 277° |
| 2026-05-05 17:55 | 51.40101 | 2.35388 | 34640 ft | 447 kts | 278° |
| 2026-05-05 17:55 | 51.40691 | 2.30502 | 34929 ft | 447 kts | 278° |
| 2026-05-05 17:55 | 51.41278 | 2.25621 | 35216 ft | 446 kts | 278° |
| 2026-05-05 17:56 | 51.41870 | 2.20751 | 35483 ft | 445 kts | 278° |
| 2026-05-05 17:56 | 51.42466 | 2.15888 | 35751 ft | 445 kts | 278° |
| 2026-05-05 17:56 | 51.43058 | 2.11025 | 36014 ft | 444 kts | 279° |
| 2026-05-05 17:56 | 51.43650 | 2.06169 | 36279 ft | 444 kts | 278° |
| 2026-05-05 17:57 | 51.44238 | 2.01316 | 36533 ft | 443 kts | 278° |
| 2026-05-05 17:57 | 51.44818 | 1.96470 | 36781 ft | 443 kts | 278° |
| 2026-05-05 17:57 | 51.45387 | 1.91627 | 37056 ft | 442 kts | 279° |
| 2026-05-05 17:57 | 51.45954 | 1.86792 | 37284 ft | 442 kts | 278° |
| 2026-05-05 17:58 | 51.46517 | 1.81950 | 37509 ft | 441 kts | 279° |
| 2026-05-05 17:58 | 51.47078 | 1.77115 | 37732 ft | 441 kts | 278° |
| 2026-05-05 17:58 | 51.47635 | 1.72278 | 37948 ft | 441 kts | 279° |
| 2026-05-05 17:59 | 51.48749 | 1.62548 | 37930 ft | 444 kts | 279° |
| 2026-05-05 17:59 | 51.49855 | 1.52839 | 37937 ft | 440 kts | 278° |
| 2026-05-05 18:00 | 51.50940 | 1.43266 | 37943 ft | 438 kts | 278° |
| 2026-05-05 18:00 | 51.52015 | 1.33674 | 37945 ft | 436 kts | 278° |
| 2026-05-05 18:01 | 51.53077 | 1.24107 | 37950 ft | 435 kts | 278° |
| 2026-05-05 18:01 | 51.54116 | 1.14533 | 37947 ft | 435 kts | 276° |
| 2026-05-05 18:02 | 51.54181 | 1.04853 | 37956 ft | 434 kts | 266° |
| 2026-05-05 18:02 | 51.53986 | 0.95132 | 37960 ft | 436 kts | 267° |
| 2026-05-05 18:03 | 51.53857 | 0.85357 | 37944 ft | 439 kts | 267° |
| 2026-05-05 18:03 | 51.53726 | 0.75533 | 37942 ft | 441 kts | 267° |
| 2026-05-05 18:04 | 51.53579 | 0.65667 | 37945 ft | 443 kts | 267° |
| 2026-05-05 18:04 | 51.53419 | 0.55774 | 37939 ft | 444 kts | 267° |
| 2026-05-05 18:05 | 51.53252 | 0.45859 | 37944 ft | 444 kts | 267° |
| 2026-05-05 18:05 | 51.53089 | 0.36015 | 37942 ft | 444 kts | 268° |
| 2026-05-05 18:06 | 51.53108 | 0.26020 | 37948 ft | 451 kts | 269° |
| 2026-05-05 18:06 | 51.53180 | 0.15875 | 37944 ft | 457 kts | 269° |
| 2026-05-05 18:07 | 51.53215 | 0.07382 | 37943 ft | 459 kts | 269° |
| 2026-05-05 18:07 | 51.53229 | -0.02707 | 37979 ft | 460 kts | 269° |
| 2026-05-05 18:08 | 51.53227 | -0.12984 | 37932 ft | 460 kts | 269° |
| 2026-05-05 18:08 | 51.53216 | -0.23236 | 37936 ft | 458 kts | 268° |
| 2026-05-05 18:09 | 51.53195 | -0.33462 | 37936 ft | 457 kts | 268° |
| 2026-05-05 18:09 | 51.53167 | -0.43652 | 37938 ft | 456 kts | 268° |
| 2026-05-05 18:10 | 51.53132 | -0.53824 | 37941 ft | 455 kts | 268° |
| 2026-05-05 18:10 | 51.53089 | -0.63445 | 37937 ft | 454 kts | 268° |
| 2026-05-05 18:11 | 51.53035 | -0.73575 | 37937 ft | 453 kts | 268° |
| 2026-05-05 18:11 | 51.52972 | -0.83703 | 37941 ft | 453 kts | 268° |
| 2026-05-05 18:12 | 51.52904 | -0.93306 | 37930 ft | 453 kts | 268° |
| 2026-05-05 18:12 | 51.52824 | -1.03415 | 37943 ft | 452 kts | 268° |
| 2026-05-05 18:13 | 51.53015 | -1.13435 | 37934 ft | 454 kts | 279° |
| 2026-05-05 18:13 | 51.54932 | -1.23088 | 37934 ft | 457 kts | 296° |
| 2026-05-05 18:14 | 51.58107 | -1.31950 | 37937 ft | 458 kts | 299° |
| 2026-05-05 18:14 | 51.61187 | -1.40889 | 37950 ft | 456 kts | 292° |
| 2026-05-05 18:15 | 51.63449 | -1.50393 | 37968 ft | 455 kts | 289° |
| 2026-05-05 18:15 | 51.65645 | -1.59936 | 37965 ft | 455 kts | 290° |
| 2026-05-05 18:16 | 51.67912 | -1.69450 | 37972 ft | 455 kts | 290° |
| 2026-05-05 18:16 | 51.70168 | -1.78974 | 37972 ft | 455 kts | 289° |
| 2026-05-05 18:17 | 51.72263 | -1.88573 | 37980 ft | 453 kts | 284° |
| 2026-05-05 18:17 | 51.73726 | -1.98459 | 37996 ft | 453 kts | 282° |
| 2026-05-05 18:18 | 51.75111 | -2.08378 | 37985 ft | 453 kts | 281° |
| 2026-05-05 18:18 | 51.76536 | -2.18266 | 37994 ft | 452 kts | 282° |
| 2026-05-05 18:19 | 51.77975 | -2.28145 | 37991 ft | 452 kts | 282° |
| 2026-05-05 18:19 | 51.79410 | -2.38027 | 38001 ft | 452 kts | 282° |
| 2026-05-05 18:20 | 51.80834 | -2.47902 | 38000 ft | 451 kts | 282° |
| 2026-05-05 18:20 | 51.82651 | -2.57594 | 38014 ft | 452 kts | 292° |
| 2026-05-05 18:21 | 51.85173 | -2.66911 | 37985 ft | 452 kts | 293° |
| 2026-05-05 18:21 | 51.87715 | -2.76211 | 37998 ft | 452 kts | 292° |
| 2026-05-05 18:22 | 51.90205 | -2.85548 | 38014 ft | 452 kts | 292° |
| 2026-05-05 18:22 | 51.92656 | -2.94912 | 38011 ft | 451 kts | 292° |
| 2026-05-05 18:23 | 51.95090 | -3.04276 | 38001 ft | 451 kts | 292° |
| 2026-05-05 18:23 | 51.97512 | -3.13657 | 38009 ft | 450 kts | 291° |
| 2026-05-05 18:24 | 51.99932 | -3.23033 | 37989 ft | 451 kts | 292° |
| 2026-05-05 18:24 | 52.02348 | -3.32427 | 38002 ft | 451 kts | 292° |
| 2026-05-05 18:25 | 52.04752 | -3.41828 | 38000 ft | 451 kts | 292° |
| 2026-05-05 18:25 | 52.07156 | -3.51269 | 38000 ft | 453 kts | 292° |
| 2026-05-05 18:26 | 52.09555 | -3.60731 | 38013 ft | 452 kts | 291° |
| 2026-05-05 18:26 | 52.11947 | -3.70203 | 38015 ft | 453 kts | 291° |
| 2026-05-05 18:27 | 52.14338 | -3.79708 | 37661 ft | 460 kts | 292° |
| 2026-05-05 18:27 | 52.15555 | -3.84560 | 37170 ft | 464 kts | 292° |
| 2026-05-05 18:27 | 52.16769 | -3.89414 | 36581 ft | 460 kts | 292° |
| 2026-05-05 18:27 | 52.17966 | -3.94212 | 36023 ft | 454 kts | 292° |
| 2026-05-05 18:28 | 52.20320 | -4.03680 | 34804 ft | 448 kts | 292° |
| 2026-05-05 18:28 | 52.21480 | -4.08356 | 34293 ft | 442 kts | 292° |
| 2026-05-05 18:28 | 52.22614 | -4.12930 | 33797 ft | 441 kts | 291° |
| 2026-05-05 18:29 | 52.23768 | -4.17603 | 33267 ft | 445 kts | 291° |
| 2026-05-05 18:29 | 52.24930 | -4.22322 | 32834 ft | 450 kts | 291° |
| 2026-05-05 18:29 | 52.26103 | -4.27092 | 32336 ft | 453 kts | 291° |
| 2026-05-05 18:29 | 52.27275 | -4.31870 | 31807 ft | 454 kts | 291° |
| 2026-05-05 18:30 | 52.28449 | -4.36664 | 31311 ft | 455 kts | 291° |
| 2026-05-05 18:30 | 52.29624 | -4.41474 | 30806 ft | 457 kts | 291° |
| 2026-05-05 18:30 | 52.30799 | -4.46301 | 30316 ft | 457 kts | 291° |
| 2026-05-05 18:30 | 52.31970 | -4.51119 | 29790 ft | 456 kts | 291° |
| 2026-05-05 18:31 | 52.33139 | -4.55936 | 29259 ft | 455 kts | 291° |
| 2026-05-05 18:31 | 52.34302 | -4.60737 | 28848 ft | 452 kts | 291° |
| 2026-05-05 18:31 | 52.35451 | -4.65492 | 28430 ft | 447 kts | 291° |
| 2026-05-05 18:31 | 52.36585 | -4.70199 | 28021 ft | 444 kts | 291° |
| 2026-05-05 18:32 | 52.37718 | -4.74910 | 27625 ft | 449 kts | 291° |
| 2026-05-05 18:32 | 52.38866 | -4.79697 | 27234 ft | 452 kts | 291° |
| 2026-05-05 18:32 | 52.40014 | -4.84492 | 26845 ft | 452 kts | 291° |
| 2026-05-05 18:32 | 52.41144 | -4.89222 | 26457 ft | 451 kts | 291° |
| 2026-05-05 18:33 | 52.42283 | -4.93999 | 26086 ft | 450 kts | 291° |
| 2026-05-05 18:33 | 52.43419 | -4.98773 | 25719 ft | 448 kts | 291° |
| 2026-05-05 18:33 | 52.44547 | -5.03527 | 25345 ft | 446 kts | 291° |
| 2026-05-05 18:33 | 52.45668 | -5.08258 | 24913 ft | 445 kts | 291° |
| 2026-05-05 18:34 | 52.46782 | -5.12973 | 24425 ft | 441 kts | 291° |
| 2026-05-05 18:34 | 52.47880 | -5.17627 | 23955 ft | 433 kts | 291° |
| 2026-05-05 18:34 | 52.48958 | -5.22211 | 23456 ft | 429 kts | 291° |
| 2026-05-05 18:34 | 52.50029 | -5.26775 | 22906 ft | 427 kts | 291° |
| 2026-05-05 18:35 | 52.51091 | -5.31307 | 22354 ft | 425 kts | 291° |
| 2026-05-05 18:35 | 52.52147 | -5.35821 | 21832 ft | 423 kts | 291° |
| 2026-05-05 18:35 | 52.53197 | -5.40319 | 21306 ft | 420 kts | 291° |
| 2026-05-05 18:35 | 52.54297 | -5.44749 | 20783 ft | 418 kts | 297° |
| 2026-05-05 18:36 | 52.56047 | -5.48530 | 20272 ft | 417 kts | 316° |
| 2026-05-05 18:36 | 52.58368 | -5.51349 | 19778 ft | 416 kts | 330° |
| 2026-05-05 18:36 | 52.61048 | -5.53101 | 19289 ft | 415 kts | 342° |
| 2026-05-05 18:36 | 52.63820 | -5.54433 | 18697 ft | 414 kts | 342° |
| 2026-05-05 18:37 | 52.66570 | -5.55744 | 18061 ft | 410 kts | 342° |
| 2026-05-05 18:37 | 52.69274 | -5.57090 | 17381 ft | 407 kts | 341° |
| 2026-05-05 18:37 | 52.71976 | -5.58474 | 16724 ft | 402 kts | 341° |
| 2026-05-05 18:37 | 52.74627 | -5.59851 | 16077 ft | 397 kts | 341° |
| 2026-05-05 18:38 | 52.77245 | -5.61216 | 15444 ft | 393 kts | 341° |
| 2026-05-05 18:38 | 52.79839 | -5.62570 | 14825 ft | 389 kts | 341° |
| 2026-05-05 18:38 | 52.82409 | -5.63913 | 14209 ft | 385 kts | 341° |
| 2026-05-05 18:38 | 52.84952 | -5.65244 | 13590 ft | 382 kts | 341° |
| 2026-05-05 18:39 | 52.87473 | -5.66564 | 12924 ft | 378 kts | 341° |
| 2026-05-05 18:39 | 52.89974 | -5.67874 | 12269 ft | 375 kts | 342° |
| 2026-05-05 18:39 | 52.92455 | -5.69172 | 11637 ft | 372 kts | 342° |
| 2026-05-05 18:39 | 52.94915 | -5.70460 | 11013 ft | 370 kts | 342° |
| 2026-05-05 18:40 | 52.97358 | -5.71741 | 10425 ft | 366 kts | 342° |
| 2026-05-05 18:40 | 52.99766 | -5.73005 | 9972 ft | 360 kts | 342° |
| 2026-05-05 18:40 | 53.02114 | -5.74239 | 9713 ft | 347 kts | 342° |
| 2026-05-05 18:40 | 53.04380 | -5.75431 | 9436 ft | 337 kts | 342° |
| 2026-05-05 18:41 | 53.06584 | -5.76592 | 9160 ft | 327 kts | 342° |
| 2026-05-05 18:41 | 53.08726 | -5.77721 | 8895 ft | 319 kts | 342° |
| 2026-05-05 18:41 | 53.10817 | -5.78826 | 8629 ft | 311 kts | 342° |
| 2026-05-05 18:41 | 53.12830 | -5.79889 | 8369 ft | 304 kts | 342° |
| 2026-05-05 18:42 | 53.14828 | -5.80947 | 8109 ft | 298 kts | 342° |
| 2026-05-05 18:42 | 53.16781 | -5.81982 | 7850 ft | 292 kts | 342° |
| 2026-05-05 18:42 | 53.18707 | -5.83004 | 7495 ft | 290 kts | 342° |
| 2026-05-05 18:42 | 53.20624 | -5.84023 | 7121 ft | 287 kts | 342° |
| 2026-05-05 18:43 | 53.22494 | -5.85018 | 6733 ft | 278 kts | 342° |
| 2026-05-05 18:43 | 53.24307 | -5.85984 | 6354 ft | 270 kts | 342° |
| 2026-05-05 18:43 | 53.26072 | -5.86925 | 5945 ft | 263 kts | 342° |
| 2026-05-05 18:43 | 53.27792 | -5.87843 | 5559 ft | 256 kts | 342° |
| 2026-05-05 18:44 | 53.29472 | -5.88741 | 5174 ft | 251 kts | 342° |
| 2026-05-05 18:44 | 53.31139 | -5.89633 | 4782 ft | 246 kts | 342° |
| 2026-05-05 18:44 | 53.32732 | -5.90486 | 4389 ft | 241 kts | 342° |
| 2026-05-05 18:44 | 53.34315 | -5.91334 | 3986 ft | 237 kts | 342° |
| 2026-05-05 18:45 | 53.35875 | -5.92170 | 3606 ft | 234 kts | 343° |
| 2026-05-05 18:45 | 53.37390 | -5.92981 | 3430 ft | 222 kts | 343° |
| 2026-05-05 18:45 | 53.38834 | -5.93755 | 3326 ft | 212 kts | 343° |
| 2026-05-05 18:45 | 53.40091 | -5.94886 | 3142 ft | 205 kts | 313° |
| 2026-05-05 18:46 | 53.40570 | -5.97059 | 3038 ft | 199 kts | 277° |
| 2026-05-05 18:46 | 53.40652 | -5.99313 | 3001 ft | 191 kts | 281° |
| 2026-05-05 18:46 | 53.40785 | -6.01511 | 2978 ft | 190 kts | 280° |
| 2026-05-05 18:46 | 53.40905 | -6.03703 | 2785 ft | 187 kts | 280° |
| 2026-05-05 18:47 | 53.41017 | -6.05849 | 2551 ft | 183 kts | 279° |
| 2026-05-05 18:47 | 53.41127 | -6.07960 | 2286 ft | 180 kts | 279° |
| 2026-05-05 18:47 | 53.41235 | -6.10036 | 2037 ft | 177 kts | 279° |
| 2026-05-05 18:47 | 53.41341 | -6.12066 | 1797 ft | 173 kts | 278° |
| 2026-05-05 18:48 | 53.41446 | -6.14062 | 1554 ft | 171 kts | 279° |
| 2026-05-05 18:48 | 53.41549 | -6.16015 | 1328 ft | 165 kts | 278° |
| 2026-05-05 18:48 | 53.41647 | -6.17872 | 1132 ft | 154 kts | 279° |
| 2026-05-05 18:48 | 53.41744 | -6.19669 | 874 ft | 156 kts | 277° |
| 2026-05-05 18:49 | 53.41839 | -6.21464 | 674 ft | 155 kts | 276° |
| 2026-05-05 18:49 | 53.41933 | -6.23255 | 476 ft | 155 kts | 276° |
| 2026-05-05 18:49 | 53.42024 | -6.25045 | 260 ft | 153 kts | 275° |
| 2026-05-05 18:49 | 53.42117 | -6.26724 | 210 ft | 123 kts | 275° |
| 2026-05-05 18:50 | 53.42179 | -6.27704 | 212 ft | 42 kts | 284° |
| 2026-05-05 18:50 | 53.42269 | -6.28049 | 210 ft | 18 kts | 300° |
| 2026-05-05 18:50 | 53.42344 | -6.28120 | 219 ft | 11 kts | 29° |
| 2026-05-05 18:50 | 53.42360 | -6.28001 | 210 ft | 11 kts | 95° |
| 2026-05-05 18:51 | 53.42352 | -6.27851 | 215 ft | 14 kts | 95° |
| 2026-05-05 18:51 | 53.42341 | -6.27655 | 210 ft | 20 kts | 95° |
| 2026-05-05 18:51 | 53.42326 | -6.27395 | 210 ft | 25 kts | 95° |
| 2026-05-05 18:51 | 53.42310 | -6.27091 | 217 ft | 26 kts | 95° |
| 2026-05-05 18:52 | 53.42294 | -6.26804 | 210 ft | 23 kts | 95° |
| 2026-05-05 18:52 | 53.42280 | -6.26546 | 216 ft | 22 kts | 95° |
| 2026-05-05 18:52 | 53.42266 | -6.26295 | 213 ft | 21 kts | 94° |
| 2026-05-05 18:52 | 53.42307 | -6.26086 | 220 ft | 20 kts | 45° |
| 2026-05-05 18:53 | 53.42404 | -6.25918 | 212 ft | 22 kts | 46° |
| 2026-05-05 18:53 | 53.42517 | -6.25727 | 210 ft | 23 kts | 45° |
| 2026-05-05 18:53 | 53.42590 | -6.25603 | 210 ft | 22 kts | 46° |
| 2026-05-05 18:53 | 53.42690 | -6.25433 | 211 ft | 18 kts | 45° |
| 2026-05-05 18:54 | 53.42780 | -6.25277 | 210 ft | 19 kts | 46° |
| 2026-05-05 18:54 | 53.42854 | -6.25188 | 216 ft | 12 kts | 359° |
| 2026-05-05 18:54 | 53.42937 | -6.25228 | 210 ft | 12 kts | 8° |
| 2026-05-05 18:54 | 53.42958 | -6.25105 | 210 ft | 12 kts | 95° |
| 2026-05-05 18:55 | 53.42951 | -6.24970 | 217 ft | 11 kts | 95° |
| 2026-05-05 18:55 | 53.42944 | -6.24843 | 210 ft | 11 kts | 96° |
| 2026-05-05 18:55 | 53.42951 | -6.24759 | 210 ft | 7 kts | 32° |
| 2026-05-05 18:55 | 53.42989 | -6.24749 | 210 ft | 3 kts | 5° |
| 2026-05-05 18:56 | 53.42996 | -6.24748 | 210 ft | 0 kts | 5° |